Time;durP1;ratioP1;P1;durP2;ratioP2;P2;SDS_P1;SDS_P2;PMS_P1;PMS_P2;Temp;Humidity;BMP_temperature;BMP_pressure;BME280_temperature;BME280_humidity;BME280_pressure;Samples;Min_cycle;Max_cycle;Signal;HPM_P1;HPM_P2
2023/04/08 00:00:26;;;;;;;;;;;6.40;99.90;;;;;;5068074;28;19920;-62
2023/04/08 00:02:58;;;;;;;;;;;6.30;99.90;;;;;;5042639;28;20308;-62
2023/04/08 00:05:30;;;;;;;;;;;6.30;99.90;;;;;;5067900;28;19924;-62
2023/04/08 00:08:01;;;;;;;;;;;6.30;99.90;;;;;;5069148;28;19977;-62
2023/04/08 00:10:33;;;;;;;;;;;6.30;99.90;;;;;;5070042;28;19927;-62
2023/04/08 00:13:05;;;;;;;;;;;6.30;99.90;;;;;;5068670;28;19920;-62
2023/04/08 00:15:37;;;;;;;;;;;6.30;99.90;;;;;;5069222;28;19994;-62
2023/04/08 00:18:09;;;;;;;;;;;6.30;99.90;;;;;;5050161;28;20299;-63
2023/04/08 00:20:41;;;;;;;;;;;6.20;99.90;;;;;;5064033;28;19924;-62
2023/04/08 00:23:13;;;;;;;;;;;6.10;99.90;;;;;;5053090;28;19956;-62
2023/04/08 00:25:44;;;;;;;;;;;6.10;99.90;;;;;;5026486;28;1069079;-62
2023/04/08 00:28:16;;;;;;;;;;;6.10;99.90;;;;;;5070759;28;19920;-62
2023/04/08 00:30:48;;;;;;;;;;;6.10;99.90;;;;;;5045339;28;19927;-63
2023/04/08 00:33:19;;;;;;;;;;;6.10;99.90;;;;;;5048702;28;20221;-64
2023/04/08 00:35:52;;;;;;;;;;;6.10;99.90;;;;;;5068368;28;19924;-63
2023/04/08 00:38:24;;;;;;;;;;;6.10;99.90;;;;;;5070773;28;20023;-62
2023/04/08 00:40:57;;;;;;;;;;;6.10;99.90;;;;;;5070881;28;19931;-62
2023/04/08 00:43:29;;;;;;;;;;;6.10;99.90;;;;;;5070858;28;19921;-62
2023/04/08 00:46:00;;;;;;;;;;;6.10;99.90;;;;;;5068482;28;19920;-62
2023/04/08 00:48:32;;;;;;;;;;;6.10;99.90;;;;;;5069602;28;19930;-62
2023/04/08 00:51:04;;;;;;;;;;;6.10;99.90;;;;;;5050475;28;19966;-62
2023/04/08 00:53:36;;;;;;;;;;;6.10;99.90;;;;;;5062101;28;19966;-62
2023/04/08 00:56:08;;;;;;;;;;;6.20;99.90;;;;;;5057382;28;20366;-62
2023/04/08 00:58:39;;;;;;;;;;;6.20;99.90;;;;;;5048313;28;19920;-62
2023/04/08 01:01:20;;;;;;;;;;;6.30;99.90;;;;;;5049772;28;20355;-62
2023/04/08 01:04:06;;;;;;;;;;;6.30;99.90;;;;;;5052286;28;19929;-62
2023/04/08 01:06:41;;;;;;;;;;;6.30;99.90;;;;;;5049585;28;19926;-62
2023/04/08 01:09:17;;;;;;;;;;;6.20;99.90;;;;;;5067070;28;19924;-62
2023/04/08 01:11:50;;;;;;;;;;;6.20;99.90;;;;;;5061541;28;19928;-62
2023/04/08 01:14:25;;;;;;;;;;;6.20;99.90;;;;;;5067115;28;19924;-62
2023/04/08 01:16:59;;;;;;;;;;;6.20;99.90;;;;;;5068798;28;19931;-62
2023/04/08 01:19:32;;;;;;;;;;;6.20;99.90;;;;;;5035983;28;19924;-62
2023/04/08 01:22:11;;;;;;;;;;;6.20;99.90;;;;;;5052249;28;19928;-62
2023/04/08 01:24:44;;;;;;;;;;;6.20;99.90;;;;;;5068564;28;19943;-62
2023/04/08 01:27:16;;;;;;;;;;;6.20;99.90;;;;;;5070697;28;19924;-62
2023/04/08 01:29:48;;;;;;;;;;;6.10;99.90;;;;;;5072257;28;19925;-62
2023/04/08 01:32:20;;;;;;;;;;;6.00;99.90;;;;;;5072089;28;19925;-62
2023/04/08 01:34:53;;;;;;;;;;;6.00;99.90;;;;;;5070741;28;20308;-62
2023/04/08 01:37:28;;;;;;;;;;;6.00;99.90;;;;;;5072412;28;20456;-62
2023/04/08 01:40:00;;;;;;;;;;;6.00;99.90;;;;;;5071742;28;20389;-62
2023/04/08 01:42:32;;;;;;;;;;;5.90;99.90;;;;;;5068258;28;19926;-62
2023/04/08 01:45:05;;;;;;;;;;;5.90;99.90;;;;;;5054695;28;20396;-62
2023/04/08 01:47:37;;;;;;;;;;;5.90;99.90;;;;;;5055133;28;19940;-62
2023/04/08 01:50:11;;;;;;;;;;;5.90;99.90;;;;;;5070427;28;19920;-62
2023/04/08 01:52:43;;;;;;;;;;;5.90;99.90;;;;;;5039124;28;19924;-63
2023/04/08 01:55:16;;;;;;;;;;;5.90;99.90;;;;;;5066740;28;19920;-63
2023/04/08 01:57:49;;;;;;;;;;;5.90;99.90;;;;;;5054682;28;19924;-62
2023/04/08 02:00:24;;;;;;;;;;;5.90;99.90;;;;;;5055096;28;19930;-63
2023/04/08 02:02:51;;;;;;;;;;;5.90;99.90;;;;;;5060549;28;19920;-62
2023/04/08 02:05:23;;;;;;;;;;;5.90;99.90;;;;;;5072958;28;19924;-62
2023/04/08 02:07:50;;;;;;;;;;;5.90;99.90;;;;;;5071377;28;19943;-62
2023/04/08 02:10:22;;;;;;;;;;;5.90;99.90;;;;;;5071145;28;19927;-62
2023/04/08 02:12:54;;;;;;;;;;;5.90;99.90;;;;;;5070133;28;19928;-62
2023/04/08 02:15:21;;;;;;;;;;;5.90;99.90;;;;;;5054677;28;19931;-62
2023/04/08 02:17:53;;;;;;;;;;;5.90;99.90;;;;;;5072484;28;19983;-62
2023/04/08 02:20:30;;;;;;;;;;;5.90;99.90;;;;;;5053667;28;19931;-62
2023/04/08 02:23:04;;;;;;;;;;;5.90;99.90;;;;;;5072356;28;19928;-62
2023/04/08 02:25:38;;;;;;;;;;;5.90;99.90;;;;;;5063811;28;19928;-62
2023/04/08 02:28:11;;;;;;;;;;;5.90;99.90;;;;;;5063946;28;19987;-62
2023/04/08 02:30:45;;;;;;;;;;;5.90;99.90;;;;;;5068145;28;19947;-62
2023/04/08 02:33:18;;;;;;;;;;;5.90;99.90;;;;;;5055177;28;19928;-62
2023/04/08 02:35:53;;;;;;;;;;;5.90;99.90;;;;;;5071063;28;19924;-62
2023/04/08 02:38:28;;;;;;;;;;;5.90;99.90;;;;;;5052408;28;19924;-62
2023/04/08 02:41:00;;;;;;;;;;;5.90;99.90;;;;;;5038050;28;20336;-62
2023/04/08 02:43:31;;;;;;;;;;;5.90;99.90;;;;;;5053694;28;20373;-62
2023/04/08 02:46:06;;;;;;;;;;;5.90;99.90;;;;;;5069067;28;19947;-62
2023/04/08 02:48:37;;;;;;;;;;;5.90;99.90;;;;;;5053008;28;19931;-62
2023/04/08 02:51:09;;;;;;;;;;;5.90;99.90;;;;;;5038376;28;20332;-63
2023/04/08 02:53:40;;;;;;;;;;;5.90;99.90;;;;;;5067491;28;19924;-62
2023/04/08 02:56:12;;;;;;;;;;;5.90;99.90;;;;;;5053918;28;19926;-62
2023/04/08 02:58:44;;;;;;;;;;;5.90;99.90;;;;;;5054646;28;19920;-62
2023/04/08 03:01:16;;;;;;;;;;;5.80;99.90;;;;;;5071776;28;19994;-62
2023/04/08 03:03:48;;;;;;;;;;;5.80;99.90;;;;;;5071792;28;19925;-62
2023/04/08 03:06:20;;;;;;;;;;;5.80;99.90;;;;;;5053628;28;19924;-62
2023/04/08 03:08:46;;;;;;;;;;;5.80;99.90;;;;;;5071386;28;19924;-62
2023/04/08 03:11:18;;;;;;;;;;;5.80;99.90;;;;;;5052553;28;19966;-62
2023/04/08 03:13:50;;;;;;;;;;;5.80;99.90;;;;;;5070344;28;19920;-62
2023/04/08 03:16:21;;;;;;;;;;;5.80;99.90;;;;;;5071101;28;19920;-63
2023/04/08 03:18:53;;;;;;;;;;;5.80;99.90;;;;;;5053989;28;20458;-62
2023/04/08 03:21:25;;;;;;;;;;;5.80;99.90;;;;;;5071978;28;19978;-62
2023/04/08 03:23:57;;;;;;;;;;;5.70;99.90;;;;;;5071720;28;19931;-63
2023/04/08 03:26:29;;;;;;;;;;;5.70;99.90;;;;;;5071317;28;19962;-62
2023/04/08 03:29:01;;;;;;;;;;;5.70;99.90;;;;;;5071652;28;19975;-63
2023/04/08 03:31:32;;;;;;;;;;;5.70;99.90;;;;;;5069447;28;19924;-62
2023/04/08 03:34:04;;;;;;;;;;;5.60;99.90;;;;;;5069972;28;19924;-62
2023/04/08 03:36:31;;;;;;;;;;;5.60;99.90;;;;;;5071685;28;19924;-63
2023/04/08 03:39:03;;;;;;;;;;;5.60;99.90;;;;;;5070193;28;19980;-62
2023/04/08 03:41:34;;;;;;;;;;;5.50;99.90;;;;;;5071443;28;20183;-62
2023/04/08 03:44:06;;;;;;;;;;;5.40;99.90;;;;;;5053520;28;20482;-62
2023/04/08 03:46:38;;;;;;;;;;;5.40;99.90;;;;;;5068709;28;19924;-62
2023/04/08 03:49:09;;;;;;;;;;;5.40;99.90;;;;;;5071393;28;19924;-62
2023/04/08 03:51:41;;;;;;;;;;;5.40;99.90;;;;;;5070151;28;19924;-62
2023/04/08 03:54:13;;;;;;;;;;;5.30;99.90;;;;;;5071387;28;19920;-62
2023/04/08 03:56:44;;;;;;;;;;;5.30;99.90;;;;;;5053247;28;19924;-62
2023/04/08 03:59:16;;;;;;;;;;;5.30;99.90;;;;;;5069064;28;20397;-62
2023/04/08 04:01:48;;;;;;;;;;;5.30;99.90;;;;;;5053566;28;19924;-62
2023/04/08 04:04:19;;;;;;;;;;;5.30;99.90;;;;;;5071040;28;20298;-63
2023/04/08 04:06:51;;;;;;;;;;;5.30;99.90;;;;;;5071434;28;19951;-62
2023/04/08 04:09:23;;;;;;;;;;;5.30;99.90;;;;;;5071156;28;20278;-62
2023/04/08 04:11:54;;;;;;;;;;;5.30;99.90;;;;;;5071294;28;19953;-63
2023/04/08 04:14:26;;;;;;;;;;;5.30;99.90;;;;;;5070320;28;20278;-62
2023/04/08 04:16:58;;;;;;;;;;;5.40;99.90;;;;;;5037287;28;19978;-62
2023/04/08 04:19:30;;;;;;;;;;;5.30;99.90;;;;;;5071093;28;20369;-62
2023/04/08 04:22:02;;;;;;;;;;;5.30;99.90;;;;;;5069786;28;19924;-62
2023/04/08 04:24:33;;;;;;;;;;;5.30;99.90;;;;;;5052119;28;19928;-62
2023/04/08 04:27:05;;;;;;;;;;;5.30;99.90;;;;;;5070796;28;20390;-62
2023/04/08 04:29:37;;;;;;;;;;;5.30;99.90;;;;;;5068002;28;20392;-62
2023/04/08 04:32:08;;;;;;;;;;;5.30;99.90;;;;;;5071528;28;19921;-62
2023/04/08 04:34:40;;;;;;;;;;;5.40;99.90;;;;;;5053657;28;19979;-62
2023/04/08 04:37:12;;;;;;;;;;;5.40;99.90;;;;;;5070785;28;19925;-62
2023/04/08 04:39:44;;;;;;;;;;;5.40;99.90;;;;;;5070725;28;19982;-62
2023/04/08 04:42:16;;;;;;;;;;;5.50;99.90;;;;;;5071042;28;19966;-63
2023/04/08 04:44:48;;;;;;;;;;;5.50;99.90;;;;;;5051985;28;19921;-61
2023/04/08 04:47:19;;;;;;;;;;;5.60;99.90;;;;;;5070710;28;19943;-61
2023/04/08 04:49:51;;;;;;;;;;;5.60;99.90;;;;;;5069763;28;19936;-61
2023/04/08 04:52:23;;;;;;;;;;;5.60;99.90;;;;;;5071375;28;19924;-61
2023/04/08 04:54:56;;;;;;;;;;;5.70;99.90;;;;;;5070648;28;19974;-61
2023/04/08 04:57:27;;;;;;;;;;;5.70;99.90;;;;;;5070147;28;19973;-61
2023/04/08 04:59:54;;;;;;;;;;;5.80;99.90;;;;;;5069818;28;19927;-61
2023/04/08 05:02:20;;;;;;;;;;;5.80;99.90;;;;;;5070679;28;20286;-61
2023/04/08 05:04:54;;;;;;;;;;;5.90;99.90;;;;;;5071796;28;19924;-61
2023/04/08 05:07:21;;;;;;;;;;;5.90;99.90;;;;;;5056168;28;19970;-63
2023/04/08 05:09:53;;;;;;;;;;;6.00;99.90;;;;;;5072803;28;19920;-63
2023/04/08 05:12:26;;;;;;;;;;;6.00;99.90;;;;;;5068027;28;19989;-63
2023/04/08 05:14:58;;;;;;;;;;;6.00;99.90;;;;;;5069680;28;19924;-63
2023/04/08 05:17:30;;;;;;;;;;;6.00;99.90;;;;;;5056172;28;20443;-63
2023/04/08 05:20:01;;;;;;;;;;;6.00;99.90;;;;;;5074278;28;19928;-63
2023/04/08 05:22:33;;;;;;;;;;;6.00;99.90;;;;;;5054629;28;19920;-63
2023/04/08 05:25:05;;;;;;;;;;;6.00;99.90;;;;;;5072160;28;19925;-63
2023/04/08 05:27:39;;;;;;;;;;;6.00;99.90;;;;;;5055643;28;19925;-63
2023/04/08 05:30:11;;;;;;;;;;;6.00;99.90;;;;;;5057098;28;19978;-63
2023/04/08 05:32:43;;;;;;;;;;;6.00;99.90;;;;;;5053633;28;20423;-63
2023/04/08 05:35:14;;;;;;;;;;;6.00;99.90;;;;;;5074028;28;19975;-63
2023/04/08 05:37:46;;;;;;;;;;;6.00;99.90;;;;;;5071588;28;19928;-63
2023/04/08 05:40:18;;;;;;;;;;;6.00;99.90;;;;;;5073878;28;19927;-63
2023/04/08 05:42:50;;;;;;;;;;;6.00;99.90;;;;;;5070002;28;19924;-63
2023/04/08 05:45:21;;;;;;;;;;;6.00;99.90;;;;;;5074014;28;20355;-63
2023/04/08 05:47:53;;;;;;;;;;;6.00;99.90;;;;;;5072554;28;19974;-63
2023/04/08 05:50:25;;;;;;;;;;;6.00;99.90;;;;;;5072532;28;20407;-63
2023/04/08 05:52:56;;;;;;;;;;;6.00;99.90;;;;;;5055631;28;19920;-63
2023/04/08 05:55:28;;;;;;;;;;;6.00;99.90;;;;;;5073740;28;20451;-63
2023/04/08 05:57:59;;;;;;;;;;;6.00;99.90;;;;;;5073421;28;19978;-63
2023/04/08 06:00:32;;;;;;;;;;;6.00;99.90;;;;;;5055589;28;19920;-63
2023/04/08 06:03:03;;;;;;;;;;;6.00;99.90;;;;;;5073602;28;20301;-63
2023/04/08 06:05:35;;;;;;;;;;;6.00;99.90;;;;;;5071287;28;19932;-63
2023/04/08 06:08:07;;;;;;;;;;;6.10;99.90;;;;;;5073122;28;19932;-63
2023/04/08 06:10:33;;;;;;;;;;;6.10;99.90;;;;;;5073384;28;19931;-63
2023/04/08 06:13:05;;;;;;;;;;;6.10;99.90;;;;;;5071468;28;20042;-63
2023/04/08 06:15:37;;;;;;;;;;;6.20;99.90;;;;;;5073321;28;19928;-62
2023/04/08 06:18:08;;;;;;;;;;;6.20;99.90;;;;;;5054889;28;19921;-63
2023/04/08 06:20:40;;;;;;;;;;;6.20;99.90;;;;;;5052401;28;20270;-63
2023/04/08 06:23:12;;;;;;;;;;;6.30;99.90;;;;;;5070577;28;19928;-63
2023/04/08 06:25:44;;;;;;;;;;;6.30;99.90;;;;;;5073166;28;19925;-63
2023/04/08 06:28:11;;;;;;;;;;;6.40;99.90;;;;;;5072803;28;19927;-63
2023/04/08 06:30:43;;;;;;;;;;;6.40;99.90;;;;;;5072982;28;19920;-63
2023/04/08 06:33:09;;;;;;;;;;;6.40;99.90;;;;;;5072845;28;19920;-63
2023/04/08 06:35:41;;;;;;;;;;;6.40;99.90;;;;;;5072393;28;19927;-63
2023/04/08 06:38:13;;;;;;;;;;;6.50;99.90;;;;;;5046992;28;19920;-63
2023/04/08 06:40:45;;;;;;;;;;;6.50;99.90;;;;;;5070694;28;19921;-63
2023/04/08 06:43:17;;;;;;;;;;;6.50;99.90;;;;;;5072765;28;19924;-63
2023/04/08 06:45:48;;;;;;;;;;;6.50;99.90;;;;;;5055698;28;20384;-63
2023/04/08 06:48:22;;;;;;;;;;;6.60;99.90;;;;;;5072356;28;19924;-63
2023/04/08 06:50:55;;;;;;;;;;;6.60;99.90;;;;;;5071789;28;19920;-63
2023/04/08 06:53:28;;;;;;;;;;;6.60;99.90;;;;;;5052374;28;19921;-63
2023/04/08 06:56:00;;;;;;;;;;;6.70;99.90;;;;;;5065134;28;19966;-63
2023/04/08 06:58:31;;;;;;;;;;;6.70;99.90;;;;;;5051905;28;20380;-63
2023/04/08 07:01:03;;;;;;;;;;;6.70;99.90;;;;;;5063471;28;20408;-63
2023/04/08 07:03:35;;;;;;;;;;;6.80;99.90;;;;;;5062883;28;19986;-63
2023/04/08 07:06:07;;;;;;;;;;;6.80;99.90;;;;;;5069678;28;19924;-64
2023/04/08 07:08:39;;;;;;;;;;;6.90;99.90;;;;;;5061691;28;19969;-63
2023/04/08 07:11:11;;;;;;;;;;;6.90;99.90;;;;;;5068357;28;19921;-62
2023/04/08 07:13:37;;;;;;;;;;;6.90;99.90;;;;;;5069756;28;19925;-63
2023/04/08 07:16:09;;;;;;;;;;;7.00;99.90;;;;;;5051690;28;20113;-63
2023/04/08 07:18:42;;;;;;;;;;;7.10;99.90;;;;;;5069657;28;19974;-63
2023/04/08 07:21:09;;;;;;;;;;;7.10;99.90;;;;;;5070100;28;19927;-63
2023/04/08 07:23:41;;;;;;;;;;;7.20;99.90;;;;;;5069672;28;19970;-63
2023/04/08 07:26:13;;;;;;;;;;;7.20;99.90;;;;;;5054580;28;19989;-63
2023/04/08 07:28:44;;;;;;;;;;;7.20;99.90;;;;;;5051395;28;19927;-63
2023/04/08 07:31:17;;;;;;;;;;;7.30;99.90;;;;;;5070825;28;19920;-63
2023/04/08 07:33:44;;;;;;;;;;;7.30;99.90;;;;;;5071539;28;20325;-63
2023/04/08 07:36:17;;;;;;;;;;;7.30;99.90;;;;;;5071626;28;19928;-63
2023/04/08 07:38:48;;;;;;;;;;;7.30;99.90;;;;;;5071010;28;19924;-63
2023/04/08 07:41:20;;;;;;;;;;;7.30;99.90;;;;;;5070388;28;20355;-63
2023/04/08 07:43:52;;;;;;;;;;;7.30;99.90;;;;;;5069406;28;19971;-63
2023/04/08 07:46:23;;;;;;;;;;;7.40;99.90;;;;;;5071556;28;19920;-63
2023/04/08 07:48:55;;;;;;;;;;;7.50;99.90;;;;;;5071184;28;19925;-63
2023/04/08 07:51:26;;;;;;;;;;;7.50;99.90;;;;;;5071472;28;19920;-63
2023/04/08 07:53:58;;;;;;;;;;;7.60;99.90;;;;;;5071443;28;19921;-63
2023/04/08 07:56:30;;;;;;;;;;;7.60;99.90;;;;;;5071337;28;19927;-63
2023/04/08 07:59:02;;;;;;;;;;;7.70;99.90;;;;;;5071483;28;19924;-63
2023/04/08 08:01:34;;;;;;;;;;;7.70;99.90;;;;;;5068968;28;19982;-63
2023/04/08 08:04:06;;;;;;;;;;;7.80;99.90;;;;;;5067941;28;19920;-63
2023/04/08 08:06:32;;;;;;;;;;;7.90;99.90;;;;;;5071290;28;19927;-63
2023/04/08 08:09:04;;;;;;;;;;;7.90;99.90;;;;;;5071127;28;20344;-63
2023/04/08 08:11:36;;;;;;;;;;;7.90;99.90;;;;;;5071396;28;20393;-63
2023/04/08 08:14:03;;;;;;;;;;;8.00;99.90;;;;;;5071151;28;19928;-63
2023/04/08 08:16:35;;;;;;;;;;;8.00;99.90;;;;;;5071247;28;19977;-63
2023/04/08 08:19:07;;;;;;;;;;;8.00;99.90;;;;;;5067820;28;20442;-62
2023/04/08 08:21:39;;;;;;;;;;;7.90;99.90;;;;;;5053157;28;19925;-63
2023/04/08 08:24:11;;;;;;;;;;;7.90;99.90;;;;;;5071151;28;19920;-63
2023/04/08 08:26:44;;;;;;;;;;;7.90;99.90;;;;;;5069839;28;20377;-63
2023/04/08 08:29:15;;;;;;;;;;;7.90;99.90;;;;;;5071052;28;19925;-63
2023/04/08 08:31:47;;;;;;;;;;;7.90;99.90;;;;;;5068401;28;19924;-62
2023/04/08 08:34:19;;;;;;;;;;;8.00;99.90;;;;;;5069618;28;19920;-63
2023/04/08 08:36:51;;;;;;;;;;;8.10;99.90;;;;;;5071605;28;19974;-63
2023/04/08 08:39:23;;;;;;;;;;;8.10;99.90;;;;;;5056656;28;20619;-63
2023/04/08 08:41:55;;;;;;;;;;;8.10;99.90;;;;;;5073797;28;19925;-63
2023/04/08 08:44:29;;;;;;;;;;;8.10;99.90;;;;;;5074855;28;19924;-63
2023/04/08 08:47:00;;;;;;;;;;;8.20;99.90;;;;;;5067562;28;19920;-63
2023/04/08 08:49:32;;;;;;;;;;;8.20;99.90;;;;;;5072137;28;19951;-63
2023/04/08 08:52:05;;;;;;;;;;;8.30;99.90;;;;;;5072887;28;19974;-63
2023/04/08 08:54:37;;;;;;;;;;;8.30;99.90;;;;;;5074637;28;19924;-63
2023/04/08 08:57:18;;;;;;;;;;;8.30;99.90;;;;;;5074677;28;19924;-63
2023/04/08 08:59:50;;;;;;;;;;;8.20;99.90;;;;;;5073537;28;19974;-63
2023/04/08 09:02:25;;;;;;;;;;;8.20;99.90;;;;;;5074630;28;19920;-62
2023/04/08 09:04:58;;;;;;;;;;;8.30;99.90;;;;;;5073562;28;20450;-63
2023/04/08 09:07:31;;;;;;;;;;;8.30;99.90;;;;;;5074376;28;20304;-63
2023/04/08 09:10:03;;;;;;;;;;;8.20;99.90;;;;;;5071492;28;19920;-63
2023/04/08 09:12:30;;;;;;;;;;;8.10;99.90;;;;;;5070064;28;20297;-63
2023/04/08 09:15:06;;;;;;;;;;;8.10;99.90;;;;;;5072162;28;19920;-63
2023/04/08 09:17:38;;;;;;;;;;;8.00;99.90;;;;;;5072823;28;19932;-63
2023/04/08 09:20:10;;;;;;;;;;;7.90;99.90;;;;;;5074368;28;19920;-63
2023/04/08 09:22:57;;;;;;;;;;;7.80;99.90;;;;;;5074160;28;20014;-63
2023/04/08 09:25:31;;;;;;;;;;;7.80;99.90;;;;;;5073007;28;19921;-63
2023/04/08 09:27:58;;;;;;;;;;;7.70;99.90;;;;;;5073784;28;20399;-63
2023/04/08 09:30:31;;;;;;;;;;;7.70;99.90;;;;;;5072150;28;19926;-63
2023/04/08 09:33:00;;;;;;;;;;;7.60;99.90;;;;;;5052332;28;19943;-63
2023/04/08 09:35:31;;;;;;;;;;;7.70;99.90;;;;;;5071343;28;19978;-63
2023/04/08 09:38:03;;;;;;;;;;;7.70;99.90;;;;;;5071623;28;19974;-63
2023/04/08 09:40:35;;;;;;;;;;;7.70;99.90;;;;;;5074081;28;19924;-63
2023/04/08 09:43:08;;;;;;;;;;;7.70;99.90;;;;;;5075822;28;19924;-64
2023/04/08 09:45:35;;;;;;;;;;;7.80;99.90;;;;;;5075663;28;20591;-64
2023/04/08 09:48:12;;;;;;;;;;;7.80;99.90;;;;;;5071996;28;19920;-64
2023/04/08 09:50:46;;;;;;;;;;;7.80;99.90;;;;;;5073514;28;19924;-64
2023/04/08 09:53:38;;;;;;;;;;;7.80;99.90;;;;;;5072687;28;19987;-64
2023/04/08 09:56:11;;;;;;;;;;;7.70;99.90;;;;;;5073424;28;19924;-63
2023/04/08 09:58:58;;;;;;;;;;;7.70;99.90;;;;;;5073752;28;19924;-63
2023/04/08 10:01:35;;;;;;;;;;;7.70;99.90;;;;;;5071202;28;19920;-64
2023/04/08 10:04:08;;;;;;;;;;;7.70;99.90;;;;;;5072473;28;19978;-63
2023/04/08 10:06:40;;;;;;;;;;;7.60;99.90;;;;;;5073403;28;19978;-63
2023/04/08 10:09:12;;;;;;;;;;;7.60;99.90;;;;;;5067842;28;19975;-63
2023/04/08 10:11:44;;;;;;;;;;;7.60;99.90;;;;;;5066058;28;19925;-63
2023/04/08 10:14:16;;;;;;;;;;;7.50;99.90;;;;;;5068249;28;19932;-63
2023/04/08 10:16:48;;;;;;;;;;;7.50;99.90;;;;;;5054518;28;19928;-63
2023/04/08 10:19:37;;;;;;;;;;;7.50;99.90;;;;;;5070866;28;19951;-63
2023/04/08 10:22:27;;;;;;;;;;;7.60;99.90;;;;;;5071358;28;19920;-63
2023/04/08 10:25:14;;;;;;;;;;;7.60;99.90;;;;;;5064691;28;19989;-63
2023/04/08 10:27:46;;;;;;;;;;;7.60;99.90;;;;;;5052962;28;19928;-63
2023/04/08 10:30:27;;;;;;;;;;;7.60;99.90;;;;;;5066920;28;19964;-63
2023/04/08 10:32:59;;;;;;;;;;;7.60;99.90;;;;;;5071713;28;20015;-63
2023/04/08 10:35:33;;;;;;;;;;;7.70;99.90;;;;;;5070508;28;19982;-63
2023/04/08 10:38:05;;;;;;;;;;;7.60;99.90;;;;;;5063799;28;19925;-63
2023/04/08 10:40:38;;;;;;;;;;;7.70;99.90;;;;;;5063201;28;19955;-63
2023/04/08 10:43:10;;;;;;;;;;;7.70;99.90;;;;;;5063225;28;19931;-63
2023/04/08 10:45:42;;;;;;;;;;;7.60;99.90;;;;;;5063839;28;19932;-63
2023/04/08 10:48:16;;;;;;;;;;;7.80;99.90;;;;;;5067695;28;19920;-63
2023/04/08 10:50:52;;;;;;;;;;;7.90;99.90;;;;;;5060630;28;19924;-63
2023/04/08 10:53:25;;;;;;;;;;;8.00;99.90;;;;;;5072308;28;19927;-63
2023/04/08 10:56:04;;;;;;;;;;;8.10;99.90;;;;;;5065410;28;19928;-63
2023/04/08 10:58:46;;;;;;;;;;;8.10;99.90;;;;;;5066908;28;20450;-63
2023/04/08 11:01:18;;;;;;;;;;;8.20;99.90;;;;;;5069516;28;19924;-63
2023/04/08 11:03:50;;;;;;;;;;;8.20;99.90;;;;;;5053281;28;19966;-63
2023/04/08 11:06:22;;;;;;;;;;;8.50;99.90;;;;;;5068515;28;19932;-63
2023/04/08 11:08:56;;;;;;;;;;;8.60;99.90;;;;;;5070310;28;19927;-63
2023/04/08 11:11:30;;;;;;;;;;;8.70;99.90;;;;;;5067683;28;20411;-64
2023/04/08 11:14:02;;;;;;;;;;;8.80;99.90;;;;;;5068775;28;19920;-63
2023/04/08 11:16:34;;;;;;;;;;;8.80;99.90;;;;;;5069189;28;19966;-63
2023/04/08 11:19:06;;;;;;;;;;;8.80;99.90;;;;;;5067880;28;19924;-63
2023/04/08 11:21:38;;;;;;;;;;;8.90;99.90;;;;;;5071182;28;19928;-63
2023/04/08 11:24:13;;;;;;;;;;;8.90;99.90;;;;;;5053760;28;19920;-63
2023/04/08 11:26:45;;;;;;;;;;;8.90;99.90;;;;;;5068768;28;19974;-63
2023/04/08 11:29:18;;;;;;;;;;;8.80;99.90;;;;;;5052841;28;20348;-63
2023/04/08 11:31:50;;;;;;;;;;;8.90;99.90;;;;;;5067381;28;20300;-63
2023/04/08 11:34:23;;;;;;;;;;;9.00;99.90;;;;;;5064705;28;19967;-63
2023/04/08 11:36:50;;;;;;;;;;;8.90;99.90;;;;;;5069098;28;19927;-63
2023/04/08 11:39:22;;;;;;;;;;;8.90;99.90;;;;;;5068482;28;20304;-63
2023/04/08 11:41:54;;;;;;;;;;;8.90;99.90;;;;;;5070087;28;19982;-63
2023/04/08 11:44:30;;;;;;;;;;;8.90;99.90;;;;;;5071161;28;19924;-63
2023/04/08 11:46:57;;;;;;;;;;;9.00;99.90;;;;;;5065355;28;19920;-63
2023/04/08 11:49:42;;;;;;;;;;;9.10;99.90;;;;;;5070926;28;19924;-63
2023/04/08 11:52:14;;;;;;;;;;;9.10;99.90;;;;;;5069388;28;19964;-63
2023/04/08 11:54:47;;;;;;;;;;;9.10;99.90;;;;;;5052864;28;19928;-63
2023/04/08 11:57:27;;;;;;;;;;;9.10;99.90;;;;;;5050952;28;19932;-63
2023/04/08 11:59:59;;;;;;;;;;;9.10;99.90;;;;;;5069431;28;19994;-63
2023/04/08 12:02:26;;;;;;;;;;;9.20;99.90;;;;;;5069192;28;19927;-63
2023/04/08 12:04:57;;;;;;;;;;;9.10;99.90;;;;;;5070364;28;19920;-63
2023/04/08 12:07:24;;;;;;;;;;;9.00;99.90;;;;;;5068774;28;20423;-63
2023/04/08 12:09:56;;;;;;;;;;;9.00;99.90;;;;;;5053227;28;19955;-63
2023/04/08 12:12:28;;;;;;;;;;;9.00;99.90;;;;;;5070746;28;19943;-63
2023/04/08 12:14:55;;;;;;;;;;;8.90;99.90;;;;;;5070777;28;19920;-63
2023/04/08 12:17:27;;;;;;;;;;;8.90;99.90;;;;;;5063449;28;20450;-63
2023/04/08 12:19:59;;;;;;;;;;;8.80;99.90;;;;;;5068680;28;19928;-63
2023/04/08 12:22:31;;;;;;;;;;;8.80;99.90;;;;;;5052505;28;19928;-63
2023/04/08 12:25:03;;;;;;;;;;;8.80;99.90;;;;;;5070656;28;19974;-63
2023/04/08 12:27:35;;;;;;;;;;;8.80;99.90;;;;;;5065039;28;19926;-63
2023/04/08 12:30:07;;;;;;;;;;;8.80;99.90;;;;;;5068419;28;19924;-63
2023/04/08 12:32:38;;;;;;;;;;;8.70;99.90;;;;;;5070539;28;19931;-63
2023/04/08 12:35:10;;;;;;;;;;;8.70;99.90;;;;;;5049366;28;19924;-63
2023/04/08 12:37:42;;;;;;;;;;;8.60;99.90;;;;;;5065155;28;20362;-63
2023/04/08 12:40:08;;;;;;;;;;;8.60;99.90;;;;;;5068051;28;19920;-63
2023/04/08 12:42:40;;;;;;;;;;;8.50;99.90;;;;;;5068269;28;19967;-63
2023/04/08 12:45:12;;;;;;;;;;;8.50;99.90;;;;;;5066966;28;19921;-63
2023/04/08 12:47:38;;;;;;;;;;;8.50;99.90;;;;;;5064417;28;19927;-63
2023/04/08 12:50:10;;;;;;;;;;;8.50;99.90;;;;;;5060365;28;19920;-63
2023/04/08 12:52:42;;;;;;;;;;;8.60;99.90;;;;;;5062304;28;19921;-63
2023/04/08 12:55:13;;;;;;;;;;;8.60;99.90;;;;;;5064826;28;20347;-63
2023/04/08 12:57:45;;;;;;;;;;;8.60;99.90;;;;;;5062094;28;19924;-63
2023/04/08 13:00:17;;;;;;;;;;;8.60;99.90;;;;;;5069709;28;19974;-63
2023/04/08 13:02:49;;;;;;;;;;;8.50;99.90;;;;;;5063878;28;20352;-63
2023/04/08 13:05:20;;;;;;;;;;;8.50;99.90;;;;;;5062859;28;19982;-63
2023/04/08 13:07:52;;;;;;;;;;;8.50;99.90;;;;;;5064081;28;19920;-63
2023/04/08 13:10:24;;;;;;;;;;;8.40;99.90;;;;;;5062360;28;19956;-63
2023/04/08 13:12:55;;;;;;;;;;;8.40;99.90;;;;;;5049606;28;19935;-63
2023/04/08 13:15:22;;;;;;;;;;;8.30;99.90;;;;;;5047928;28;19927;-63
2023/04/08 13:17:49;;;;;;;;;;;8.20;99.90;;;;;;5068442;28;19928;-63
2023/04/08 13:20:24;;;;;;;;;;;8.10;99.90;;;;;;5069555;28;19928;-63
2023/04/08 13:22:56;;;;;;;;;;;8.10;99.90;;;;;;5071156;28;19920;-63
2023/04/08 13:25:27;;;;;;;;;;;8.10;99.90;;;;;;5067964;28;19982;-63
2023/04/08 13:28:00;;;;;;;;;;;8.00;99.90;;;;;;5071613;28;20290;-63
2023/04/08 13:30:32;;;;;;;;;;;8.10;99.90;;;;;;5069923;28;20402;-63
2023/04/08 13:33:03;;;;;;;;;;;8.10;99.90;;;;;;5071425;28;19924;-63
2023/04/08 13:35:35;;;;;;;;;;;8.00;99.90;;;;;;5055929;28;19989;-63
2023/04/08 13:38:07;;;;;;;;;;;7.90;99.90;;;;;;5071412;28;19921;-63
2023/04/08 13:40:39;;;;;;;;;;;7.80;99.90;;;;;;5073921;28;19924;-63
2023/04/08 13:43:11;;;;;;;;;;;7.80;99.90;;;;;;5065788;28;19924;-63
2023/04/08 13:45:43;;;;;;;;;;;7.80;99.90;;;;;;5073684;28;20015;-63
2023/04/08 13:48:15;;;;;;;;;;;7.80;99.90;;;;;;5066082;28;19920;-63
2023/04/08 13:50:48;;;;;;;;;;;7.80;99.90;;;;;;5073472;28;19924;-63
2023/04/08 13:53:19;;;;;;;;;;;7.80;99.90;;;;;;5064477;28;19956;-63
2023/04/08 13:55:53;;;;;;;;;;;7.80;99.90;;;;;;5069886;28;19928;-63
2023/04/08 13:58:26;;;;;;;;;;;7.80;99.90;;;;;;5064167;28;19974;-63
2023/04/08 14:00:57;;;;;;;;;;;7.80;99.90;;;;;;5042858;28;19928;-63
2023/04/08 14:03:29;;;;;;;;;;;7.80;99.90;;;;;;5054870;28;19931;-63
2023/04/08 14:06:01;;;;;;;;;;;7.80;99.90;;;;;;5051361;28;20277;-63
2023/04/08 14:08:33;;;;;;;;;;;7.80;99.90;;;;;;5061682;28;19946;-63
2023/04/08 14:11:04;;;;;;;;;;;7.80;99.90;;;;;;5067200;28;19921;-63
2023/04/08 14:13:37;;;;;;;;;;;7.80;99.90;;;;;;5066819;28;19920;-63
2023/04/08 14:16:09;;;;;;;;;;;7.80;99.90;;;;;;5071283;28;19925;-62
2023/04/08 14:18:36;;;;;;;;;;;7.90;99.90;;;;;;5066952;28;19924;-63
2023/04/08 14:21:08;;;;;;;;;;;8.00;99.90;;;;;;5070615;28;19921;-63
2023/04/08 14:23:39;;;;;;;;;;;8.00;99.90;;;;;;5068627;28;19928;-63
2023/04/08 14:26:11;;;;;;;;;;;7.90;99.90;;;;;;5072717;28;20466;-63
2023/04/08 14:28:42;;;;;;;;;;;7.90;99.90;;;;;;5070452;28;19920;-63
2023/04/08 14:31:14;;;;;;;;;;;7.90;99.90;;;;;;5054955;28;19920;-63
2023/04/08 14:33:46;;;;;;;;;;;7.80;99.90;;;;;;5068912;28;19928;-63
2023/04/08 14:36:19;;;;;;;;;;;7.80;99.90;;;;;;5052751;28;19936;-63
2023/04/08 14:38:51;;;;;;;;;;;7.70;99.90;;;;;;5066792;28;19924;-63
2023/04/08 14:41:25;;;;;;;;;;;7.60;99.90;;;;;;5067382;28;19927;-63
2023/04/08 14:43:56;;;;;;;;;;;7.60;99.90;;;;;;5066601;28;19921;-63
2023/04/08 14:46:28;;;;;;;;;;;7.50;99.90;;;;;;5064127;28;19924;-62
2023/04/08 14:48:55;;;;;;;;;;;7.40;99.90;;;;;;5066627;28;19920;-62
2023/04/08 14:51:27;;;;;;;;;;;7.30;99.90;;;;;;5069863;28;19935;-62
2023/04/08 14:53:59;;;;;;;;;;;7.30;99.90;;;;;;5068135;28;19921;-61
2023/04/08 14:56:31;;;;;;;;;;;7.30;99.90;;;;;;5049323;28;20379;-61
2023/04/08 14:59:02;;;;;;;;;;;7.20;99.90;;;;;;5065443;28;19966;-62